Time;durP1;ratioP1;P1;durP2;ratioP2;P2;SDS_P1;SDS_P2;PMS_P1;PMS_P2;Temp;Humidity;BMP_temperature;BMP_pressure;BME280_temperature;BME280_humidity;BME280_pressure;Samples;Min_cycle;Max_cycle;Signal;HPM_P1;HPM_P2
2022/06/04 00:01:02;;;;;;;4.32;3.97;;;;;;;23.82;64.95;100025.09;4344077;32;32799;-88
2022/06/04 00:04:17;;;;;;;6.32;4.62;;;;;;;24.13;63.61;100010.37;4346214;32;33803;-89
2022/06/04 00:06:48;;;;;;;5.55;4.28;;;;;;;23.91;64.83;100013.44;4368516;32;33102;-89
2022/06/04 00:09:21;;;;;;;7.45;4.53;;;;;;;23.70;65.64;100001.03;4362546;32;33449;-88
2022/06/04 00:17:25;;;;;;;4.85;4.15;;;;;;;23.97;64.57;99989.41;4364802;32;32893;-87
2022/06/04 00:19:53;;;;;;;5.05;4.37;;;;;;;24.11;64.00;99977.28;4364151;32;33440;-87
2022/06/04 00:22:21;;;;;;;5.75;4.20;;;;;;;24.09;64.62;99970.34;4354546;32;33195;-86
2022/06/04 00:24:48;;;;;;;5.22;4.22;;;;;;;23.99;64.91;99967.72;4356388;32;32991;-87
2022/06/04 00:27:19;;;;;;;4.80;4.20;;;;;;;23.91;65.38;99959.50;4339361;32;32705;-87
2022/06/04 00:29:47;;;;;;;8.20;4.47;;;;;;;23.56;66.75;99977.19;4355873;32;32784;-87
2022/06/04 00:32:17;;;;;;;6.62;4.40;;;;;;;23.41;67.50;99978.66;4341646;32;35501;-87
2022/06/04 00:34:45;;;;;;;6.82;4.97;;;;;;;23.43;67.77;99976.66;4354937;32;35721;-87
2022/06/04 00:37:13;;;;;;;9.48;4.90;;;;;;;23.43;67.74;99979.34;4365756;32;35027;-87
2022/06/04 00:39:40;;;;;;;5.70;5.10;;;;;;;23.44;67.81;99986.44;4348432;32;31781;-87
2022/06/04 00:42:13;;;;;;;6.53;5.15;;;;;;;23.39;68.03;99980.63;4356381;32;32828;-87
2022/06/04 00:45:23;;;;;;;7.25;5.15;;;;;;;23.27;68.63;99981.81;4366827;32;34019;-87
2022/06/04 00:47:52;;;;;;;6.32;4.28;;;;;;;23.34;68.57;99978.37;4338441;32;33983;-86
2022/06/04 00:50:21;;;;;;;5.70;4.75;;;;;;;23.37;68.51;99977.25;4357079;32;31879;-86
2022/06/04 00:52:51;;;;;;;6.55;5.00;;;;;;;23.36;68.46;99970.13;4369515;32;33920;-86
2022/06/04 00:55:20;;;;;;;5.93;4.32;;;;;;;23.58;67.38;99959.03;4364704;32;34639;-87
2022/06/04 00:57:51;;;;;;;8.63;4.95;;;;;;;23.82;66.77;99946.91;4353512;32;33633;-87
2022/06/04 01:00:39;;;;;;;7.30;4.65;;;;;;;23.59;67.59;99944.53;4365914;32;32996;-85
2022/06/04 01:03:23;;;;;;;7.60;4.72;;;;;;;23.22;68.55;99947.22;4361780;32;33488;-88
2022/06/04 01:06:13;;;;;;;9.35;5.53;;;;;;;23.15;69.01;99938.84;4360351;32;33239;-88
2022/06/04 01:09:01;;;;;;;6.47;5.45;;;;;;;23.55;67.38;99931.50;4366447;32;34165;-87
2022/06/04 01:12:09;;;;;;;5.50;5.00;;;;;;;23.10;68.97;99924.97;4369274;32;32798;-88
2022/06/04 01:15:12;;;;;;;9.07;5.18;;;;;;;23.44;68.08;99913.69;4365897;32;32811;-87
2022/06/04 01:18:11;;;;;;;5.68;5.07;;;;;;;23.40;67.74;99910.41;4367125;32;33840;-87
2022/06/04 01:20:55;;;;;;;6.10;4.68;;;;;;;23.14;68.96;99906.66;4357946;32;32674;-87
2022/06/04 01:23:49;;;;;;;6.07;4.90;;;;;;;23.16;69.04;99894.75;4346162;32;32608;-88
2022/06/04 01:26:38;;;;;;;5.40;4.20;;;;;;;23.20;69.09;99898.00;4353975;32;33547;-87
2022/06/04 01:29:11;;;;;;;5.22;4.65;;;;;;;23.25;68.82;99879.56;4381104;32;31886;-87
2022/06/04 01:31:51;;;;;;;7.15;5.37;;;;;;;22.96;69.93;99893.09;4350562;32;33205;-87
2022/06/04 01:34:23;;;;;;;5.90;5.30;;;;;;;22.86;70.41;99901.16;4370122;32;33646;-88
2022/06/04 01:36:54;;;;;;;9.05;5.47;;;;;;;22.97;69.79;99913.62;4362857;32;34238;-87
2022/06/04 01:39:26;;;;;;;9.80;5.80;;;;;;;22.90;70.26;99909.81;4373688;32;33127;-87
2022/06/04 01:41:56;;;;;;;8.20;5.00;;;;;;;23.11;69.38;99915.88;4364320;32;32432;-88
2022/06/04 01:44:28;;;;;;;5.72;4.97;;;;;;;22.98;70.05;99920.75;4350543;32;32346;-87
2022/06/04 01:47:00;;;;;;;6.25;5.32;;;;;;;23.11;69.41;99921.25;4362272;32;32847;-87
2022/06/04 01:49:33;;;;;;;8.68;5.47;;;;;;;23.11;69.66;99932.03;4374407;32;32653;-87
2022/06/04 01:52:08;;;;;;;6.72;5.43;;;;;;;23.16;69.34;99937.84;4348879;32;33339;-87
2022/06/04 01:54:40;;;;;;;6.07;4.43;;;;;;;23.43;68.18;99938.94;4375193;32;32387;-88
2022/06/04 01:57:33;;;;;;;6.65;5.43;;;;;;;23.48;68.08;99942.03;4364459;32;32658;-88
2022/06/04 02:00:10;;;;;;;6.18;4.75;;;;;;;23.61;67.72;99939.03;4352889;32;33547;-88
2022/06/04 02:02:58;;;;;;;6.55;5.45;;;;;;;23.57;67.99;99927.69;4375029;32;33655;-88
2022/06/04 02:05:37;;;;;;;9.68;5.15;;;;;;;23.38;68.78;99920.50;4377095;32;32193;-88
2022/06/04 02:08:08;;;;;;;5.82;5.30;;;;;;;23.23;69.44;99919.28;4373864;32;33818;-87
2022/06/04 02:10:43;;;;;;;9.43;5.90;;;;;;;23.34;69.10;99924.47;4352940;32;32731;-88
2022/06/04 02:13:14;;;;;;;5.65;5.15;;;;;;;23.28;69.41;99913.44;4370778;32;33197;-87
2022/06/04 02:15:54;;;;;;;6.93;5.72;;;;;;;23.18;69.88;99911.63;4347628;32;31998;-86
2022/06/04 02:18:24;;;;;;;5.30;4.80;;;;;;;23.02;70.51;99907.81;4370250;32;33901;-86
2022/06/04 02:20:51;;;;;;;4.93;4.15;;;;;;;23.11;69.62;99905.09;4377567;32;33589;-88
2022/06/04 02:23:20;;;;;;;10.25;5.55;;;;;;;23.21;68.95;99892.47;4375616;32;33929;-86
2022/06/04 02:25:48;;;;;;;6.62;4.90;;;;;;;22.86;70.52;99909.22;4350541;32;32871;-86
2022/06/04 02:28:22;;;;;;;7.90;4.93;;;;;;;22.86;70.09;99903.00;4363555;32;33033;-86
2022/06/04 02:31:05;;;;;;;9.70;4.68;;;;;;;22.95;69.66;99904.88;4363071;32;32771;-86
2022/06/04 02:33:44;;;;;;;5.37;3.90;;;;;;;23.10;68.96;99906.09;4377200;32;33922;-86
2022/06/04 02:36:39;;;;;;;5.85;5.18;;;;;;;23.41;67.55;99908.59;4374605;32;32743;-86
2022/06/04 02:39:12;;;;;;;5.15;4.65;;;;;;;23.61;66.95;99907.53;4375523;32;32425;-86
2022/06/04 02:41:58;;;;;;;6.07;4.85;;;;;;;23.25;68.29;99904.66;4364265;32;33562;-86
2022/06/04 02:44:29;;;;;;;5.93;4.97;;;;;;;23.04;69.42;99906.69;4366628;32;33531;-86
2022/06/04 02:47:08;;;;;;;5.78;4.95;;;;;;;22.93;69.84;99906.84;4362798;32;32169;-86
2022/06/04 02:49:45;;;;;;;5.72;4.40;;;;;;;22.95;69.86;99912.94;4363799;32;32410;-88
2022/06/04 02:52:14;;;;;;;5.72;4.62;;;;;;;22.84;70.18;99905.00;4362989;32;32968;-88
2022/06/04 02:54:55;;;;;;;6.53;5.32;;;;;;;22.58;71.10;99905.53;4350842;32;32883;-87
2022/06/04 02:57:24;;;;;;;8.57;5.93;;;;;;;22.80;70.22;99904.41;4373905;32;34138;-88
2022/06/04 02:59:53;;;;;;;6.97;6.22;;;;;;;22.91;69.94;99896.22;4374859;32;33914;-88
2022/06/04 03:02:22;;;;;;;8.38;6.22;;;;;;;22.99;70.04;99882.03;4364064;32;32652;-88
2022/06/04 03:04:53;;;;;;;7.95;6.05;;;;;;;23.05;70.16;99875.22;4359356;32;33897;-91
2022/06/04 03:07:44;;;;;;;7.18;5.95;;;;;;;22.92;70.70;99880.91;4354337;32;31501;-91
2022/06/04 03:10:39;;;;;;;8.20;5.70;;;;;;;22.39;73.19;99881.31;4353131;32;32660;-94
2022/06/04 03:13:20;;;;;;;6.85;5.62;;;;;;;22.46;72.98;99891.41;4386675;32;34444;-91
2022/06/04 03:16:14;;;;;;;7.72;5.55;;;;;;;22.27;73.59;99895.91;4382157;32;33971;-91
2022/06/04 03:18:53;;;;;;;8.73;5.20;;;;;;;22.44;73.13;99897.88;4370610;32;33310;-91
2022/06/04 03:21:44;;;;;;;8.18;5.40;;;;;;;22.55;72.57;99897.78;4353813;32;34039;-91
2022/06/04 03:24:27;;;;;;;9.50;5.93;;;;;;;22.68;72.17;99890.25;4377836;32;32941;-91
2022/06/04 03:27:20;;;;;;;7.15;5.93;;;;;;;22.62;72.29;99898.06;4385767;32;32147;-92
2022/06/04 03:29:59;;;;;;;8.30;7.40;;;;;;;22.53;72.67;99901.59;4381478;32;32628;-91
2022/06/04 03:32:51;;;;;;;9.25;7.60;;;;;;;22.14;74.69;99897.00;4362540;32;34076;-90
2022/06/04 03:35:30;;;;;;;13.77;9.27;;;;;;;21.88;75.86;99896.63;4373964;32;33741;-90
2022/06/04 03:38:23;;;;;;;17.58;9.52;;;;;;;22.36;73.92;99895.94;4385104;32;33478;-89
2022/06/04 03:40:51;;;;;;;12.50;8.32;;;;;;;22.20;74.66;99900.97;4378980;32;32218;-89
2022/06/04 03:43:21;;;;;;;14.20;8.68;;;;;;;22.45;73.69;99888.81;4379156;32;33072;-89
2022/06/04 03:45:49;;;;;;;11.45;8.65;;;;;;;22.05;75.38;99886.19;4378238;32;32781;-90
2022/06/04 03:48:22;;;;;;;12.20;8.30;;;;;;;22.16;74.93;99884.25;4378185;32;32499;-89
2022/06/04 03:50:50;;;;;;;9.68;8.38;;;;;;;22.25;74.19;99890.66;4369649;32;32280;-89
2022/06/04 03:53:19;;;;;;;13.80;8.07;;;;;;;21.72;76.97;99889.06;4376901;32;32460;-91
2022/06/04 03:56:04;;;;;;;13.32;8.15;;;;;;;21.84;76.58;99888.97;4374438;32;32876;-91
2022/06/04 03:58:54;;;;;;;10.80;8.43;;;;;;;22.06;75.31;99886.06;4377711;32;33702;-91
2022/06/04 04:01:53;;;;;;;11.18;8.38;;;;;;;22.03;75.80;99891.72;4382490;32;32343;-90
2022/06/04 04:04:41;;;;;;;13.32;8.35;;;;;;;21.92;76.76;99889.13;4370884;32;32261;-90
2022/06/04 04:07:10;;;;;;;12.93;9.38;;;;;;;22.10;75.63;99884.78;4380568;32;33366;-90
2022/06/04 04:10:00;;;;;;;10.23;8.40;;;;;;;22.22;75.34;99886.41;4376726;32;32917;-91
2022/06/04 04:13:09;;;;;;;11.27;8.38;;;;;;;22.17;75.71;99893.19;4382449;32;34515;-92
2022/06/04 04:16:07;;;;;;;11.00;9.02;;;;;;;22.59;73.62;99890.25;4367659;32;32600;-90
2022/06/04 04:18:46;;;;;;;10.98;8.98;;;;;;;22.64;73.19;99896.91;4385145;32;32859;-92
2022/06/04 04:21:39;;;;;;;10.98;9.10;;;;;;;22.49;74.01;99895.63;4400044;32;32938;-92
2022/06/04 04:24:20;;;;;;;9.63;8.63;;;;;;;22.31;74.40;99897.31;4372317;32;32827;-90
2022/06/04 04:27:04;;;;;;;10.80;7.62;;;;;;;22.01;75.24;99906.28;4346587;32;34467;-91
2022/06/04 04:29:56;;;;;;;11.15;6.78;;;;;;;22.23;73.93;99912.31;4376601;32;20102;-90
2022/06/04 04:32:50;;;;;;;13.35;7.72;;;;;;;21.68;76.12;99957.50;4364886;32;33936;-91
2022/06/04 04:35:48;;;;;;;14.50;8.50;;;;;;;21.61;76.97;100006.56;4372142;32;33584;-92
2022/06/04 04:38:36;;;;;;;15.80;8.43;;;;;;;21.70;77.12;99982.44;4352587;32;33299;-93
2022/06/04 04:41:38;;;;;;;12.40;8.15;;;;;;;21.67;77.40;99963.03;4372639;32;32653;-94
2022/06/04 04:44:18;;;;;;;11.50;7.07;;;;;;;21.61;77.23;99952.81;4350508;32;33049;-93
2022/06/04 04:47:20;;;;;;;12.05;6.45;;;;;;;21.71;76.79;99951.88;4381148;32;32233;-92
2022/06/04 04:50:39;;;;;;;7.43;5.53;;;;;;;21.69;76.27;99947.59;4367458;32;32747;-92
2022/06/04 04:53:43;;;;;;;8.48;5.68;;;;;;;21.92;75.01;99956.34;4372095;32;32727;-92
2022/06/04 04:56:26;;;;;;;5.72;4.37;;;;;;;21.99;74.72;99946.75;4337306;32;32667;-87
2022/06/04 04:58:54;;;;;;;8.65;5.87;;;;;;;22.04;73.76;99943.66;4372098;32;32688;-87
2022/06/04 05:01:25;;;;;;;8.50;6.60;;;;;;;21.94;74.31;99932.87;4352821;32;33520;-87
2022/06/04 05:03:56;;;;;;;9.32;6.65;;;;;;;21.94;74.47;99946.31;4343139;32;33737;-87
2022/06/04 05:06:30;;;;;;;11.95;7.10;;;;;;;22.07;73.53;99946.06;4342706;32;34507;-87
2022/06/04 05:08:59;;;;;;;9.35;6.10;;;;;;;22.22;73.26;99944.75;4361910;32;33274;-87
2022/06/04 05:11:30;;;;;;;9.05;6.65;;;;;;;22.29;72.80;99936.97;4343795;32;33074;-84
2022/06/04 05:14:02;;;;;;;7.05;5.97;;;;;;;22.06;73.54;99925.53;4353768;32;33848;-84
2022/06/04 05:16:36;;;;;;;11.88;5.65;;;;;;;22.11;73.44;99926.84;4355245;32;33162;-84
2022/06/04 05:19:05;;;;;;;6.62;5.45;;;;;;;21.73;74.91;99925.72;4368038;32;33097;-84
2022/06/04 05:21:36;;;;;;;9.20;5.90;;;;;;;21.81;74.69;99934.94;4345986;32;33242;-85
2022/06/04 05:24:14;;;;;;;9.93;5.60;;;;;;;21.60;75.15;99946.59;4341065;32;32691;-85
2022/06/04 05:26:43;;;;;;;7.05;5.40;;;;;;;21.13;76.53;99954.22;4342591;32;33863;-84
2022/06/04 05:29:19;;;;;;;11.15;5.95;;;;;;;21.39;75.81;99959.19;4354182;32;32266;-85
2022/06/04 05:31:48;;;;;;;9.02;5.85;;;;;;;21.56;75.18;99955.06;4336518;32;32826;-85
2022/06/04 05:34:18;;;;;;;16.87;7.32;;;;;;;21.68;75.25;99959.34;4342124;32;32792;-88
2022/06/04 05:36:47;;;;;;;7.18;4.72;;;;;;;21.83;74.17;99946.41;4344229;32;33353;-88
2022/06/04 05:39:17;;;;;;;8.57;5.32;;;;;;;21.50;75.83;99943.00;4330570;32;32213;-89
2022/06/04 05:41:46;;;;;;;11.52;5.60;;;;;;;21.36;76.06;99944.19;4343094;32;33866;-89
2022/06/04 05:44:19;;;;;;;7.40;5.03;;;;;;;21.60;75.07;99930.47;4345553;32;34503;-89
2022/06/04 05:46:50;;;;;;;6.45;4.53;;;;;;;21.64;75.39;99931.87;4343034;32;32739;-89
2022/06/04 05:49:23;;;;;;;7.78;4.62;;;;;;;21.91;74.25;99934.00;4337290;32;33593;-87
2022/06/04 05:51:55;;;;;;;5.78;4.18;;;;;;;21.91;74.45;99933.13;4352094;32;32471;-88
2022/06/04 05:54:30;;;;;;;6.95;4.78;;;;;;;21.88;74.42;99934.25;4348326;32;33823;-91
2022/06/04 05:57:01;;;;;;;7.80;4.85;;;;;;;21.97;74.08;99940.66;4380506;32;34547;-89
2022/06/04 05:59:29;;;;;;;6.78;4.20;;;;;;;21.87;74.00;99937.94;4361984;32;32358;-88
2022/06/04 06:01:59;;;;;;;5.37;4.15;;;;;;;21.78;74.30;99944.12;4382041;32;33907;-88
2022/06/04 06:04:31;;;;;;;10.43;4.72;;;;;;;21.67;74.59;99939.69;4374971;32;32821;-88
2022/06/04 06:07:00;;;;;;;5.87;4.18;;;;;;;21.61;75.11;99937.56;4363348;32;34037;-89
2022/06/04 06:09:30;;;;;;;9.05;4.57;;;;;;;21.37;76.25;99934.31;4361979;32;32718;-90
2022/06/04 06:11:58;;;;;;;9.93;4.95;;;;;;;21.11;77.26;99929.31;4380457;32;32601;-88
2022/06/04 06:14:40;;;;;;;6.32;4.50;;;;;;;21.27;76.76;99927.97;4379891;32;33691;-88
2022/06/04 06:17:11;;;;;;;6.85;4.50;;;;;;;20.97;78.10;99933.16;4375951;32;34170;-88
2022/06/04 06:19:41;;;;;;;13.27;4.80;;;;;;;21.32;76.29;99936.56;4377989;32;32711;-90
2022/06/04 06:22:22;;;;;;;10.77;4.40;;;;;;;21.04;77.27;99938.88;4375588;32;33743;-90
2022/06/04 06:24:55;;;;;;;6.35;3.50;;;;;;;21.08;77.10;99926.91;4374282;32;32633;-90
2022/06/04 06:27:37;;;;;;;5.68;3.80;;;;;;;21.26;76.41;99937.03;4362429;32;33215;-90
2022/06/04 06:30:10;;;;;;;;;;;;;;;20.91;77.48;99930.16;4383891;32;32091;-90
2022/06/04 06:33:05;;;;;;;5.12;3.90;;;;;;;21.03;76.88;99929.12;4378309;32;32639;-88
2022/06/04 06:35:34;;;;;;;5.95;4.03;;;;;;;20.79;78.53;99925.81;4382767;32;33984;-89
2022/06/04 06:38:03;;;;;;;6.40;3.83;;;;;;;21.19;76.49;99921.44;4373223;32;32708;-88
2022/06/04 06:40:37;;;;;;;12.75;4.82;;;;;;;21.29;76.27;99926.03;4387699;32;33010;-89
2022/06/04 06:43:07;;;;;;;6.85;3.90;;;;;;;21.12;76.55;99931.00;4387448;32;32774;-89
2022/06/04 06:45:38;;;;;;;6.28;4.07;;;;;;;21.03;76.85;99937.19;4382412;32;32760;-89
2022/06/04 06:48:06;;;;;;;7.65;4.15;;;;;;;20.96;76.97;99927.94;4376076;32;32263;-89
2022/06/04 06:50:43;;;;;;;9.85;3.75;;;;;;;21.20;76.20;99923.16;4360868;32;32999;-89
2022/06/04 06:53:12;;;;;;;9.15;5.15;;;;;;;21.15;76.41;99928.06;4369640;32;33035;-89
2022/06/04 06:55:51;;;;;;;11.82;4.82;;;;;;;21.29;75.76;99931.41;4387821;32;33310;-89
2022/06/04 06:58:29;;;;;;;8.00;3.87;;;;;;;21.26;75.88;99921.75;4385768;32;34728;-89
2022/06/04 07:00:58;;;;;;;8.57;4.72;;;;;;;21.36;75.69;99928.06;4382070;32;32184;-90
2022/06/04 07:03:36;;;;;;;7.62;4.15;;;;;;;21.10;76.84;99922.25;4381048;32;32406;-89
2022/06/04 07:06:08;;;;;;;6.43;4.30;;;;;;;21.33;76.41;99917.59;4382827;32;33003;-89
2022/06/04 07:08:46;;;;;;;9.23;4.95;;;;;;;21.20;76.95;99914.25;4368728;32;34046;-89
2022/06/04 07:11:20;;;;;;;7.50;4.45;;;;;;;21.58;75.73;99912.78;4371481;32;33436;-90
2022/06/04 07:13:59;;;;;;;8.90;5.00;;;;;;;21.68;75.53;99903.75;4379810;32;34605;-88
2022/06/04 07:16:39;;;;;;;5.62;4.75;;;;;;;21.70;75.47;99899.12;4363733;32;32567;-88
2022/06/04 07:19:08;;;;;;;7.40;4.32;;;;;;;21.88;75.18;99901.16;4390168;32;33102;-88
2022/06/04 07:21:41;;;;;;;8.13;4.82;;;;;;;;;;4389606;32;33461;-88
2022/06/04 07:24:16;;;;;;;11.68;5.00;;;;;;;21.75;75.54;99906.78;4378345;32;35667;-89
2022/06/04 07:26:47;;;;;;;10.20;5.22;;;;;;;22.12;74.50;99901.66;4389877;32;32605;-88
2022/06/04 07:29:24;;;;;;;12.70;5.22;;;;;;;22.24;73.95;99899.72;4376030;32;32674;-89
2022/06/04 07:32:03;;;;;;;8.43;4.95;;;;;;;22.13;75.09;99894.47;4367671;32;32711;-89
2022/06/04 07:38:17;;;;;;;7.28;4.82;;;;;;;22.54;73.26;99904.13;4379534;32;33285;-88
2022/06/04 07:40:46;;;;;;;8.90;4.70;;;;;;;22.88;73.16;99903.69;4338140;32;33815;-89
2022/06/04 07:43:17;;;;;;;6.03;4.40;;;;;;;22.73;73.53;99901.44;4351039;32;32191;-88
2022/06/04 07:45:46;;;;;;;9.60;4.50;;;;;;;22.85;72.67;99906.69;4374108;32;33653;-89
2022/06/04 07:48:22;;;;;;;10.85;4.57;;;;;;;23.08;71.74;99908.09;4363226;32;32900;-89
2022/06/04 07:51:02;;;;;;;5.93;4.15;;;;;;;23.13;71.67;99905.81;4365693;32;33229;-89
2022/06/04 07:53:50;;;;;;;5.60;5.03;;;;;;;23.41;70.73;99914.00;4377381;32;32855;-89
2022/06/04 07:56:34;;;;;;;6.03;4.62;;;;;;;23.29;70.84;99910.59;4376797;32;33345;-89
2022/06/04 07:59:04;;;;;;;7.00;4.90;;;;;;;23.47;71.29;99908.84;4372751;32;32469;-89
2022/06/04 08:01:33;;;;;;;7.95;3.83;;;;;;;23.44;72.20;99903.75;4350236;32;32596;-89
2022/06/04 08:04:05;;;;;;;6.72;5.15;;;;;;;23.57;71.96;99902.56;4376965;32;33246;-89
2022/06/04 08:06:33;;;;;;;8.43;4.90;;;;;;;23.79;71.06;99896.00;4382191;32;32779;-89
2022/06/04 08:09:03;;;;;;;6.07;4.22;;;;;;;23.64;70.71;99890.22;4384507;32;33098;-89
2022/06/04 08:11:38;;;;;;;15.80;5.18;;;;;;;23.80;69.64;99895.00;4389085;32;34612;-89
2022/06/04 08:14:19;;;;;;;5.25;4.43;;;;;;;23.69;69.83;99894.19;4374901;32;32481;-89
2022/06/04 08:19:32;;;;;;;5.07;4.50;;;;;;;23.74;69.03;99897.28;4389558;32;32718;-89
2022/06/04 08:22:10;;;;;;;10.32;4.85;;;;;;;24.12;68.25;99884.59;4377130;32;33280;-89
2022/06/04 08:24:47;;;;;;;4.87;4.32;;;;;;;24.30;67.90;99883.75;4376843;32;32715;-88
2022/06/04 08:27:16;;;;;;;5.45;4.53;;;;;;;24.28;67.55;99876.66;4376925;32;33668;-88
2022/06/04 08:29:44;;;;;;;7.20;4.30;;;;;;;24.16;68.27;99877.88;4377004;32;33365;-89
2022/06/04 08:37:42;;;;;;;5.95;3.90;;;;;;;24.94;64.12;99888.06;4377590;32;34164;-88
2022/06/04 08:40:22;;;;;;;5.65;4.40;;;;;;;24.41;67.01;99887.13;4374018;32;32660;-88
2022/06/04 08:43:15;;;;;;;6.68;4.37;;;;;;;24.66;67.08;99887.34;4374088;32;32864;-88
2022/06/04 08:45:51;;;;;;;7.68;4.35;;;;;;;24.61;67.60;99885.09;4373329;32;34152;-89
2022/06/04 08:48:37;;;;;;;9.90;4.72;;;;;;;24.71;67.49;99891.25;4362669;32;34007;-88
2022/06/04 08:51:18;;;;;;;6.87;4.22;;;;;;;24.95;66.97;99892.47;4373713;32;34307;-88
2022/06/04 08:53:50;;;;;;;10.70;4.07;;;;;;;24.64;68.13;99892.91;4361539;32;34015;-88
2022/06/04 08:59:22;;;;;;;5.03;3.20;;;;;;;24.31;68.25;99896.22;4363519;32;32806;-88
2022/06/04 09:05:03;;;;;;;4.83;3.70;;;;;;;24.00;68.67;99899.28;4373997;32;33208;-91
2022/06/04 09:07:37;;;;;;;3.70;3.40;;;;;;;24.57;67.23;99894.50;4363042;32;32148;-92
2022/06/04 09:10:25;;;;;;;3.95;3.65;;;;;;;24.98;67.03;99892.16;4351572;32;32961;-91
2022/06/04 09:13:20;;;;;;;5.37;3.72;;;;;;;24.99;67.97;99902.81;4400866;32;34641;-91
2022/06/04 09:16:16;;;;;;;5.60;4.32;;;;;;;25.01;67.35;99899.94;4361690;32;35266;-91
2022/06/04 09:19:22;;;;;;;3.85;3.45;;;;;;;24.88;67.54;99897.66;4371845;32;33497;-91
2022/06/04 09:22:21;;;;;;;5.47;3.60;;;;;;;24.83;67.15;99901.81;4357814;32;32674;-91
2022/06/04 09:25:46;;;;;;;5.05;3.40;;;;;;;25.10;66.38;99893.63;4349984;32;32424;-91
2022/06/04 09:29:07;;;;;;;3.08;2.78;;;;;;;25.09;66.73;99891.09;4370437;32;33147;-91
2022/06/04 09:32:15;;;;;;;3.53;2.87;;;;;;;24.85;67.31;99894.41;4403468;32;34165;-88
2022/06/04 09:35:22;;;;;;;2.85;1.75;;;;;;;24.98;65.99;99884.91;4351223;32;32441;-93
2022/06/04 09:38:26;;;;;;;3.53;1.95;;;;;;;25.18;63.82;99888.28;4353361;32;33462;-93
2022/06/04 09:41:34;;;;;;;3.85;1.70;;;;;;;25.39;65.51;99884.34;4402763;32;33345;-94
2022/06/04 09:44:30;;;;;;;3.35;1.90;;;;;;;25.44;64.50;99890.12;4380000;32;33684;-93
2022/06/04 09:47:30;;;;;;;2.17;1.75;;;;;;;25.89;64.04;99883.62;4376497;32;34667;-89
2022/06/04 09:53:02;;;;;;;2.10;1.10;;;;;;;25.80;64.69;99885.44;4370822;32;32669;-90
2022/06/04 09:55:45;;;;;;;2.83;1.30;;;;;;;26.01;63.28;99887.69;4382792;32;35883;-91
2022/06/04 09:58:20;;;;;;;0.93;0.80;;;;;;;26.51;56.84;99878.72;4358166;32;33173;-90
2022/06/04 10:00:57;;;;;;;5.50;1.02;;;;;;;26.61;57.30;99882.09;4370637;32;33363;-90
2022/06/04 10:03:34;;;;;;;4.72;1.10;;;;;;;26.92;57.75;99887.72;4384341;32;32948;-89
2022/06/04 10:06:11;;;;;;;18.23;9.32;;;;;;;26.73;57.46;99877.19;4377586;32;33301;-90
2022/06/04 10:11:53;;;;;;;6.28;2.12;;;;;;;27.04;56.20;99886.31;4371159;32;33078;-89
2022/06/04 10:14:37;;;;;;;1.12;1.00;;;;;;;27.21;55.27;99892.63;4372096;32;34628;-88
2022/06/04 10:17:20;;;;;;;4.40;3.65;;;;;;;27.39;54.89;99881.53;4371182;32;32708;-88
2022/06/04 10:19:54;;;;;;;2.42;1.62;;;;;;;27.70;53.42;99881.63;4364937;32;33235;-89
2022/06/04 10:22:23;;;;;;;4.93;3.12;;;;;;;27.96;53.20;99875.94;4361708;32;32786;-89
2022/06/04 10:24:59;;;;;;;3.95;2.78;;;;;;;28.32;52.15;99870.81;4384104;32;34068;-87
2022/06/04 10:27:41;;;;;;;2.97;0.98;;;;;;;28.12;54.68;99880.44;4370762;32;32040;-89
2022/06/04 10:30:24;;;;;;;16.80;3.20;;;;;;;27.56;52.22;99898.62;4364825;32;32676;-89
2022/06/04 10:33:28;;;;;;;10.57;2.15;;;;;;;27.62;52.49;99878.94;4371553;32;34547;-89
2022/06/04 10:36:04;;;;;;;2.12;1.95;;;;;;;26.96;55.01;99893.59;4357773;32;32503;-89
2022/06/04 10:38:48;;;;;;;5.35;4.75;;;;;;;27.05;55.36;99890.72;4379766;32;33097;-88
2022/06/04 10:41:54;;;;;;;2.70;1.85;;;;;;;27.16;56.10;99886.87;4371081;32;34684;-89
2022/06/04 10:44:37;;;;;;;4.87;4.25;;;;;;;27.09;55.54;99893.97;4379494;32;33650;-89
2022/06/04 10:47:17;;;;;;;9.93;8.25;;;;;;;27.11;54.55;99886.53;4377957;32;33680;-88
2022/06/04 10:50:10;;;;;;;2.92;1.85;;;;;;;27.01;55.29;99896.66;4363339;32;32714;-88
2022/06/04 10:52:39;;;;;;;5.95;3.53;;;;;;;26.78;57.59;99891.09;4373735;32;33831;-93
2022/06/04 10:55:49;;;;;;;5.75;5.35;;;;;;;27.25;54.82;99888.53;4383269;32;32809;-92
2022/06/04 10:59:02;;;;;;;5.30;1.60;;;;;;;27.19;55.05;99889.22;4379030;32;35089;-86
2022/06/04 11:01:58;;;;;;;;;;;;;;;27.07;57.16;99906.84;4374258;32;33869;-86
2022/06/04 11:04:37;;;;;;;14.63;9.48;;;;;;;27.68;54.44;99899.97;4363033;32;32776;-87
2022/06/04 11:07:32;;;;;;;4.32;3.35;;;;;;;27.95;53.45;99906.81;4386036;32;33987;-87
2022/06/04 11:10:04;;;;;;;20.55;14.38;;;;;;;28.12;52.52;99899.44;4374237;32;32958;-87
2022/06/04 11:13:16;;;;;;;4.85;4.37;;;;;;;28.23;50.54;99909.91;4386349;32;32955;-89
2022/06/04 11:16:13;;;;;;;3.03;2.05;;;;;;;27.67;51.89;99898.25;4370099;32;33238;-89
2022/06/04 11:18:56;;;;;;;2.67;2.12;;;;;;;27.57;52.17;99913.88;4374441;32;33425;-88
2022/06/04 11:21:51;;;;;;;1.77;1.45;;;;;;;27.17;53.07;99920.22;4373889;32;33296;-89
2022/06/04 11:24:29;;;;;;;12.80;9.68;;;;;;;27.62;51.28;99916.91;4388555;32;32582;-88
2022/06/04 11:27:16;;;;;;;4.70;3.10;;;;;;;27.96;51.09;99913.91;4354181;32;33343;-86
2022/06/04 11:29:49;;;;;;;3.42;2.10;;;;;;;27.88;51.66;99921.28;4380658;32;34261;-88
2022/06/04 11:32:43;;;;;;;3.05;1.73;;;;;;;27.68;51.97;99921.66;4363928;32;33730;-86
2022/06/04 11:35:27;;;;;;;2.33;1.33;;;;;;;27.55;51.59;99918.63;4371669;32;33883;-87
2022/06/04 11:38:06;;;;;;;7.53;6.78;;;;;;;27.69;51.94;99928.75;4386135;32;32505;-87
2022/06/04 11:41:02;;;;;;;7.45;6.37;;;;;;;28.00;49.79;99917.97;4385487;32;30767;-86
2022/06/04 11:43:44;;;;;;;3.47;3.17;;;;;;;27.93;49.81;99914.28;4373201;32;33557;-86
2022/06/04 11:46:41;;;;;;;4.78;1.92;;;;;;;27.49;51.13;99919.34;4383648;32;37515;-87
2022/06/04 11:49:25;;;;;;;11.50;8.85;;;;;;;27.48;51.20;99920.34;4374350;32;34202;-85
2022/06/04 11:52:16;;;;;;;7.40;4.32;;;;;;;27.47;52.51;99921.34;4386012;32;33960;-86
2022/06/04 11:56:02;;;;;;;14.57;13.07;;;;;;;27.62;51.95;99925.03;4364299;32;33951;-86
2022/06/04 11:58:46;;;;;;;5.60;5.07;;;;;;;27.56;50.06;99923.88;4316111;33;34079;-86
2022/06/04 12:03:56;;;;;;;7.62;3.50;;;;;;;27.04;51.40;99929.69;4360107;32;34211;-86
2022/06/04 12:06:36;;;;;;;7.55;6.70;;;;;;;27.06;51.72;99932.22;4393988;32;33408;-91
2022/06/04 12:09:26;;;;;;;2.12;1.92;;;;;;;27.14;51.58;99934.97;4392317;32;32522;-91
2022/06/04 12:12:18;;;;;;;2.08;1.90;;;;;;;27.23;52.27;99936.66;4392691;32;34192;-91
2022/06/04 12:15:03;;;;;;;3.78;3.40;;;;;;;27.16;53.48;99927.53;4392071;32;32659;-92
2022/06/04 12:17:56;;;;;;;5.60;3.58;;;;;;;27.59;50.56;99936.25;4392055;32;33848;-90
2022/06/04 12:27:25;;;;;;;4.85;3.85;;;;;;;27.62;52.64;99937.75;4350104;32;32970;-90
2022/06/04 12:30:37;;;;;;;3.85;1.98;;;;;;;27.38;51.81;99944.09;4381718;32;33095;-91
2022/06/04 12:33:30;;;;;;;6.90;6.20;;;;;;;27.29;51.30;99943.25;4401969;32;32372;-90
2022/06/04 12:40:23;;;;;;;8.60;5.87;;;;;;;27.21;51.70;99941.41;4386521;32;32767;-90
2022/06/04 12:43:10;;;;;;;3.78;3.12;;;;;;;27.57;51.84;99935.56;4340389;32;32499;-91
2022/06/04 12:45:47;;;;;;;6.72;3.12;;;;;;;27.90;50.90;99949.06;4344858;33;33752;-91
2022/06/04 12:48:36;;;;;;;4.32;3.90;;;;;;;28.21;50.07;99936.38;4349146;32;33754;-89
2022/06/04 12:51:19;;;;;;;2.00;1.55;;;;;;;28.18;50.19;99938.59;4351562;32;34049;-89
2022/06/04 12:54:36;;;;;;;2.30;2.10;;;;;;;27.98;50.36;99927.34;4361220;32;33269;-89
2022/06/04 12:57:17;;;;;;;5.75;3.62;;;;;;;28.12;50.45;99934.75;4347428;32;33684;-91
2022/06/04 12:59:52;;;;;;;2.03;1.67;;;;;;;28.21;51.10;99924.69;4351088;32;33326;-90
2022/06/04 13:02:29;;;;;;;5.32;3.22;;;;;;;28.49;48.08;99919.63;4362330;32;34118;-91
2022/06/04 13:05:18;;;;;;;2.05;1.25;;;;;;;28.23;48.38;99930.78;4354023;32;32439;-91
2022/06/04 13:08:19;;;;;;;3.37;1.23;;;;;;;28.33;47.81;99937.66;4378108;32;33179;-89
2022/06/04 13:11:16;;;;;;;1.48;1.30;;;;;;;28.33;47.93;99937.66;4363227;32;32939;-89
2022/06/04 13:14:02;;;;;;;4.80;3.60;;;;;;;28.38;48.57;99933.59;4379224;32;33744;-91
2022/06/04 13:16:49;;;;;;;3.60;1.62;;;;;;;28.58;47.20;99913.09;4341001;32;32636;-90
2022/06/04 13:19:34;;;;;;;1.98;1.77;;;;;;;28.41;49.41;99922.38;4365331;32;33895;-91